Bismarck, Illinois
Current Conditions -  °F | °C
As of 12:35 PM on Thursday 30 Oct 2014 (Local Time) from KDNV Reporting Station
Haze Haze  
Wind Chill: 50°   Ceiling: Unl
Heat Index: 50°   Visibility: 3mi
Dew Point: 33°   Wind: 10mph
Humidity: 52%   Direction: 210°SSW
Pressure: 30.1"   Gusts: NA
Location:  40.26°N, 87.61°W
Report Text: KDNV 301735Z AUTO 21009KT 3SM HZ SCT120 10/01 A3010 RMK AO2 T01020007
Loading
Personal Weather Stations






























Interactive Weather Map
Tropical Storm Tracking
New forecast layout! Learn more

10-Day Weather Forecast

Advertisements
Track Severe Weather on mobile